createdAt,value
2018-12-20T00:02:11.796Z,20.03
2018-12-20T00:04:44.191Z,18.17
2018-12-20T00:07:15.861Z,16.87
2018-12-20T00:09:47.042Z,16.13
2018-12-20T00:12:18.114Z,15.80
2018-12-20T00:14:49.094Z,19.60
2018-12-20T00:17:25.337Z,17.77
2018-12-20T00:19:56.322Z,16.77
2018-12-20T00:22:27.305Z,16.80
2018-12-20T00:24:58.221Z,16.50
2018-12-20T00:27:29.493Z,18.07
2018-12-20T00:30:00.631Z,15.83
2018-12-20T00:32:31.908Z,19.17
2018-12-20T00:35:02.937Z,15.57
2018-12-20T00:37:33.948Z,17.70
2018-12-20T00:40:06.597Z,20.70
2018-12-20T00:42:38.026Z,19.90
2018-12-20T00:45:09.129Z,19.90
2018-12-20T00:47:40.156Z,17.50
2018-12-20T00:50:11.256Z,16.23
2018-12-20T00:52:42.178Z,14.23
2018-12-20T00:55:13.583Z,14.73
2018-12-20T00:57:44.547Z,14.87
2018-12-20T01:00:15.714Z,14.97
2018-12-20T01:02:46.826Z,15.47
2018-12-20T01:05:17.792Z,14.40
2018-12-20T01:07:48.826Z,15.47
2018-12-20T01:10:19.969Z,15.70
2018-12-20T01:12:50.951Z,15.60
2018-12-20T01:15:21.927Z,15.13
2018-12-20T01:17:52.950Z,16.50
2018-12-20T01:20:23.959Z,16.37
2018-12-20T01:22:55.145Z,18.53
2018-12-20T01:25:26.007Z,18.87
2018-12-20T01:27:56.800Z,23.20
2018-12-20T01:30:27.911Z,26.50
2018-12-20T01:32:59.073Z,25.17
2018-12-20T01:35:29.912Z,26.37
2018-12-20T01:38:00.756Z,26.50
2018-12-20T01:40:31.797Z,25.40
2018-12-20T01:43:02.686Z,25.20
2018-12-20T01:45:33.413Z,25.10
2018-12-20T01:48:04.454Z,22.67
2018-12-20T01:50:35.561Z,22.70
2018-12-20T01:53:06.660Z,22.97
2018-12-20T01:55:37.574Z,23.13
2018-12-20T01:58:08.526Z,22.23
2018-12-20T02:00:39.762Z,23.20
2018-12-20T02:03:11.000Z,23.63
2018-12-20T02:05:42.083Z,22.73
2018-12-20T02:08:13.225Z,22.30
2018-12-20T02:10:44.095Z,23.93
2018-12-20T02:13:14.833Z,23.67
2018-12-20T02:15:45.718Z,24.17
2018-12-20T02:18:16.832Z,26.40
2018-12-20T02:20:47.688Z,27.03
2018-12-20T02:23:18.582Z,25.83
2018-12-20T02:25:49.519Z,26.13
2018-12-20T02:28:20.557Z,29.33
2018-12-20T02:30:51.801Z,24.40
2018-12-20T02:33:22.847Z,26.00
2018-12-20T02:35:53.949Z,24.73
2018-12-20T02:38:24.894Z,23.23
2018-12-20T02:40:55.873Z,25.23
2018-12-20T02:43:26.774Z,24.53
2018-12-20T02:45:57.573Z,24.10
2018-12-20T02:48:28.281Z,24.40
2018-12-20T02:50:59.056Z,21.33
2018-12-20T02:53:30.246Z,22.90
2018-12-20T02:56:01.699Z,23.07
2018-12-20T02:58:32.907Z,23.03
2018-12-20T03:01:03.816Z,24.20
2018-12-20T03:03:34.641Z,27.20
2018-12-20T03:06:05.898Z,26.20
2018-12-20T03:08:36.840Z,26.60
2018-12-20T03:11:08.056Z,27.03
2018-12-20T03:13:39.013Z,28.53
2018-12-20T03:16:09.986Z,25.77
2018-12-20T03:18:40.849Z,27.17
2018-12-20T03:21:11.733Z,26.40
2018-12-20T03:23:42.696Z,26.03
2018-12-20T03:26:13.526Z,25.60
2018-12-20T03:28:44.451Z,27.10
2018-12-20T03:31:15.645Z,39.53
2018-12-20T03:33:47.319Z,30.97
2018-12-20T03:36:18.339Z,26.77
2018-12-20T03:38:49.299Z,28.63
2018-12-20T03:41:20.212Z,28.60
2018-12-20T03:43:51.296Z,30.23
2018-12-20T03:46:22.578Z,30.23
2018-12-20T03:48:53.493Z,30.20
2018-12-20T03:51:24.641Z,27.73
2018-12-20T03:53:55.728Z,26.97
2018-12-20T03:56:26.863Z,26.73
2018-12-20T03:58:57.959Z,25.93
2018-12-20T04:01:28.910Z,23.07
2018-12-20T04:03:59.836Z,23.77
2018-12-20T04:06:30.849Z,26.13
2018-12-20T04:09:02.269Z,23.73
2018-12-20T04:11:33.792Z,24.60
2018-12-20T04:14:04.774Z,23.00
2018-12-20T04:16:35.734Z,23.50
2018-12-20T04:19:06.791Z,20.87
2018-12-20T04:21:37.871Z,23.07
2018-12-20T04:24:09.216Z,20.30
2018-12-20T04:26:40.495Z,19.20
2018-12-20T04:29:11.460Z,20.57
2018-12-20T04:31:42.429Z,22.20
2018-12-20T04:34:13.548Z,22.80
2018-12-20T04:36:44.697Z,21.37
2018-12-20T04:39:15.599Z,21.40
2018-12-20T04:41:46.662Z,21.80
2018-12-20T04:44:17.484Z,23.93
2018-12-20T04:46:48.602Z,27.23
2018-12-20T04:49:19.664Z,25.57
2018-12-20T04:51:56.499Z,23.13
2018-12-20T04:54:28.188Z,23.47
2018-12-20T04:56:59.441Z,24.40
2018-12-20T04:59:30.599Z,22.60
2018-12-20T05:02:01.564Z,23.73
2018-12-20T05:04:32.570Z,23.93
2018-12-20T05:07:03.845Z,22.60
2018-12-20T05:09:35.141Z,21.73
2018-12-20T05:12:06.176Z,21.00
2018-12-20T05:14:37.860Z,19.43
2018-12-20T05:17:09.183Z,18.20
2018-12-20T05:19:40.398Z,21.00
2018-12-20T05:22:11.616Z,19.40
2018-12-20T05:24:42.869Z,19.57
2018-12-20T05:27:14.021Z,17.07
2018-12-20T05:29:45.399Z,16.47
2018-12-20T05:32:16.362Z,18.27
2018-12-20T05:34:47.507Z,19.57
2018-12-20T05:37:18.499Z,17.50
2018-12-20T05:42:11.354Z,21.17
2018-12-20T05:44:43.480Z,19.70
2018-12-20T05:47:15.583Z,19.60
2018-12-20T05:49:47.362Z,19.43
2018-12-20T05:52:19.505Z,21.47
2018-12-20T05:54:51.534Z,20.77
2018-12-20T05:57:23.526Z,22.93
2018-12-20T05:59:56.037Z,22.17
2018-12-20T06:02:28.576Z,22.93
2018-12-20T06:05:00.925Z,24.60
2018-12-20T06:07:33.266Z,24.37
2018-12-20T06:10:05.438Z,22.37
2018-12-20T06:12:38.193Z,23.97
2018-12-20T06:15:10.740Z,25.90
2018-12-20T06:17:42.597Z,28.40
2018-12-20T06:20:15.168Z,25.53
2018-12-20T06:22:47.336Z,22.80
2018-12-20T06:25:21.302Z,23.23
2018-12-20T06:27:54.012Z,23.37
2018-12-20T06:30:25.849Z,23.17
2018-12-20T06:32:58.024Z,26.63
2018-12-20T06:35:29.986Z,29.23
2018-12-20T06:38:02.431Z,29.37
2018-12-20T06:40:34.282Z,23.53
2018-12-20T06:43:06.301Z,34.27
2018-12-20T06:45:38.218Z,48.40
2018-12-20T06:48:10.309Z,40.17
2018-12-20T06:50:42.660Z,31.87
2018-12-20T06:53:15.512Z,29.47
2018-12-20T06:55:47.691Z,28.23
2018-12-20T06:58:20.165Z,25.50
2018-12-20T07:00:52.337Z,25.87
2018-12-20T07:03:24.403Z,24.13
2018-12-20T07:05:56.324Z,26.87
2018-12-20T07:08:28.199Z,28.40
2018-12-20T07:11:00.125Z,26.07
2018-12-20T07:13:32.261Z,23.77
2018-12-20T07:16:04.736Z,22.93
2018-12-20T07:18:37.055Z,23.10
2018-12-20T07:21:09.223Z,23.47
2018-12-20T07:23:41.183Z,24.17
2018-12-20T07:26:13.240Z,23.83
2018-12-20T07:28:45.329Z,24.53
2018-12-20T07:31:17.722Z,27.63
2018-12-20T07:33:49.827Z,26.23
2018-12-20T07:36:22.187Z,23.43
2018-12-20T07:38:54.320Z,26.90
2018-12-20T07:41:26.684Z,26.50
2018-12-20T07:43:58.538Z,27.50
2018-12-20T07:46:37.540Z,27.73
2018-12-20T07:49:05.296Z,29.80
2018-12-20T07:51:37.573Z,32.50
2018-12-20T07:54:09.641Z,36.00
2018-12-20T07:56:42.139Z,33.57
2018-12-20T07:59:14.597Z,29.33
2018-12-20T08:01:46.761Z,33.03
2018-12-20T08:04:19.130Z,31.13
2018-12-20T08:06:51.410Z,27.33
2018-12-20T08:09:23.772Z,28.83
2018-12-20T08:11:56.080Z,30.43
2018-12-20T08:14:28.338Z,27.60
2018-12-20T08:17:00.455Z,27.50
2018-12-20T08:19:36.448Z,36.40
2018-12-20T08:22:06.598Z,34.53
2018-12-20T08:24:38.502Z,36.57
2018-12-20T08:27:10.333Z,35.80
2018-12-20T08:29:44.523Z,37.43
2018-12-20T08:32:16.627Z,34.30
2018-12-20T08:34:49.033Z,36.50
2018-12-20T08:37:21.118Z,33.07
2018-12-20T08:39:53.276Z,38.70
2018-12-20T08:42:25.517Z,39.77
2018-12-20T08:44:58.989Z,36.37
2018-12-20T08:47:31.226Z,34.90
2018-12-20T08:50:03.062Z,33.23
2018-12-20T08:52:36.083Z,33.37
2018-12-20T08:55:08.509Z,34.20
2018-12-20T08:57:40.507Z,32.57
2018-12-20T09:00:13.106Z,33.37
2018-12-20T09:02:46.086Z,33.50
2018-12-20T09:05:18.394Z,36.20
2018-12-20T09:07:50.805Z,36.77
2018-12-20T09:10:23.386Z,40.30
2018-12-20T09:12:56.262Z,42.33
2018-12-20T09:15:29.212Z,43.27
2018-12-20T09:18:01.476Z,44.33
2018-12-20T09:20:34.502Z,37.30
2018-12-20T09:23:07.234Z,46.90
2018-12-20T09:25:39.830Z,33.83
2018-12-20T09:28:11.981Z,36.23
2018-12-20T09:30:44.381Z,33.73
2018-12-20T09:33:16.528Z,38.10
2018-12-20T09:35:48.892Z,36.37
2018-12-20T09:38:20.991Z,34.13
2018-12-20T09:40:53.248Z,34.80
2018-12-20T09:43:25.401Z,34.37
2018-12-20T09:45:57.319Z,31.77
2018-12-20T09:48:29.415Z,35.93
2018-12-20T09:51:01.699Z,32.93
2018-12-20T09:53:34.993Z,31.77
2018-12-20T09:56:09.000Z,34.23
2018-12-20T09:58:42.387Z,33.53
2018-12-20T10:01:15.646Z,34.93
2018-12-20T10:03:48.741Z,35.50
2018-12-20T10:06:23.115Z,36.27
2018-12-20T10:08:58.579Z,34.30
2018-12-20T10:11:30.820Z,34.40
2018-12-20T10:14:04.340Z,45.43
2018-12-20T10:16:39.578Z,37.30
2018-12-20T10:19:14.149Z,35.30
2018-12-20T10:21:48.392Z,38.03
2018-12-20T10:24:22.060Z,35.37
2018-12-20T10:26:56.265Z,35.17
2018-12-20T10:29:29.727Z,40.30
2018-12-20T10:32:04.195Z,38.57
2018-12-20T10:34:37.682Z,47.03
2018-12-20T10:37:11.856Z,44.47
2018-12-20T10:39:44.185Z,41.53
2018-12-20T10:42:17.108Z,41.63
2018-12-20T10:44:51.906Z,45.07
2018-12-20T10:47:29.191Z,44.83
2018-12-20T10:50:03.140Z,40.70
2018-12-20T10:52:36.133Z,40.00
2018-12-20T10:55:08.692Z,42.93
2018-12-20T10:57:42.157Z,38.53
2018-12-20T11:00:15.984Z,35.20
2018-12-20T11:02:54.784Z,48.30
2018-12-20T11:06:09.992Z,42.23
2018-12-20T11:08:47.523Z,51.07
2018-12-20T11:11:22.988Z,43.03
2018-12-20T11:13:56.686Z,38.30
2018-12-20T11:16:33.854Z,38.17
2018-12-20T11:19:07.837Z,39.10
2018-12-20T11:21:41.213Z,44.30
2018-12-20T11:24:13.989Z,38.87
2018-12-20T11:26:48.498Z,33.60
2018-12-20T11:29:21.943Z,37.70
2018-12-20T11:31:55.882Z,39.93
2018-12-20T11:34:29.370Z,60.20
2018-12-20T11:37:03.450Z,45.73
2018-12-20T11:39:36.636Z,39.57
2018-12-20T11:42:09.580Z,34.37
2018-12-20T11:44:42.277Z,36.23
2018-12-20T11:47:21.226Z,34.13
2018-12-20T11:49:55.136Z,36.87
2018-12-20T11:52:29.160Z,36.33
2018-12-20T11:55:01.556Z,34.30
2018-12-20T11:57:35.596Z,37.03
2018-12-20T12:00:10.544Z,39.67
2018-12-20T12:02:42.984Z,43.40
2018-12-20T12:05:15.368Z,39.70
2018-12-20T12:07:47.851Z,38.10
2018-12-20T12:10:20.052Z,41.63
2018-12-20T12:12:52.209Z,41.70
2018-12-20T12:15:26.509Z,40.57
2018-12-20T12:17:59.819Z,43.40
2018-12-20T12:20:32.437Z,41.43
2018-12-20T12:23:04.889Z,41.37
2018-12-20T12:25:37.227Z,42.67
2018-12-20T12:28:09.683Z,38.30
2018-12-20T12:30:42.576Z,50.50
2018-12-20T12:33:15.237Z,43.37
2018-12-20T12:35:48.197Z,40.53
2018-12-20T12:38:21.018Z,39.80
2018-12-20T12:40:53.511Z,38.07
2018-12-20T12:43:25.542Z,38.20
2018-12-20T12:45:57.672Z,38.23
2018-12-20T12:48:30.416Z,36.37
2018-12-20T12:51:03.475Z,38.77
2018-12-20T12:53:36.082Z,35.83
2018-12-20T12:56:08.753Z,40.00
2018-12-20T12:58:41.871Z,36.17
2018-12-20T13:01:14.020Z,36.07
2018-12-20T13:03:47.103Z,38.17
2018-12-20T13:06:19.638Z,47.10
2018-12-20T13:08:53.374Z,46.57
2018-12-20T13:11:25.568Z,43.30
2018-12-20T13:13:58.315Z,38.90
2018-12-20T13:16:30.981Z,45.50
2018-12-20T13:19:03.502Z,45.20
2018-12-20T13:21:35.537Z,42.27
2018-12-20T13:24:07.661Z,38.97
2018-12-20T13:26:39.689Z,39.30
2018-12-20T13:29:12.807Z,37.07
2018-12-20T13:31:45.342Z,43.33
2018-12-20T13:34:18.005Z,36.57
2018-12-20T13:36:50.744Z,33.73
2018-12-20T13:39:23.489Z,36.67
2018-12-20T13:41:56.272Z,38.40
2018-12-20T13:44:29.490Z,37.33
2018-12-20T13:47:01.661Z,33.23
2018-12-20T13:49:34.018Z,38.67
2018-12-20T13:52:06.723Z,51.10
2018-12-20T13:54:39.227Z,46.47
2018-12-20T13:57:11.472Z,35.33
2018-12-20T13:59:44.021Z,37.87
2018-12-20T14:02:16.525Z,36.00
2018-12-20T14:04:48.781Z,38.57
2018-12-20T14:07:21.153Z,35.87
2018-12-20T14:09:53.443Z,38.80
2018-12-20T14:12:25.454Z,38.47
2018-12-20T14:14:57.563Z,38.87
2018-12-20T14:17:30.882Z,37.57
2018-12-20T14:20:03.491Z,38.13
2018-12-20T14:22:35.913Z,39.43
2018-12-20T14:25:08.624Z,37.77
2018-12-20T14:27:41.238Z,42.33
2018-12-20T14:30:14.788Z,41.03
2018-12-20T14:32:47.788Z,42.47
2018-12-20T14:35:20.228Z,46.60
2018-12-20T14:37:52.926Z,48.27
2018-12-20T14:40:25.145Z,41.33
2018-12-20T14:42:57.701Z,46.57
2018-12-20T14:45:30.093Z,45.03
2018-12-20T14:48:02.544Z,46.60
2018-12-20T14:50:35.080Z,44.60
2018-12-20T14:53:07.502Z,45.43
2018-12-20T14:55:39.842Z,44.73
2018-12-20T14:58:12.516Z,45.30
2018-12-20T15:00:45.092Z,46.37
2018-12-20T15:03:18.000Z,63.17
2018-12-20T15:05:50.347Z,49.43
2018-12-20T15:08:22.770Z,51.13
2018-12-20T15:10:55.211Z,49.97
2018-12-20T15:13:27.507Z,51.87
2018-12-20T15:16:00.590Z,58.63
2018-12-20T15:18:32.836Z,70.65
2018-12-20T15:21:04.965Z,61.73
2018-12-20T15:23:37.814Z,53.30
2018-12-20T15:26:10.155Z,60.65
2018-12-20T15:28:42.701Z,62.47
2018-12-20T15:31:15.813Z,57.57
2018-12-20T15:33:48.244Z,52.60
2018-12-20T15:36:20.835Z,57.60
2018-12-20T15:38:53.110Z,48.43
2018-12-20T15:41:25.551Z,47.40
2018-12-20T15:43:58.998Z,43.77
2018-12-20T15:46:31.507Z,44.93
2018-12-20T15:49:05.001Z,44.93
2018-12-20T15:51:37.625Z,37.87
2018-12-20T15:54:10.002Z,46.90
2018-12-20T15:56:42.241Z,56.10
2018-12-20T15:59:13.925Z,49.43
2018-12-20T16:01:45.964Z,44.60
2018-12-20T16:04:18.373Z,48.30
2018-12-20T16:06:50.520Z,40.77
2018-12-20T16:09:23.079Z,40.93
2018-12-20T16:11:56.804Z,46.87
2018-12-20T16:14:44.819Z,47.50
2018-12-20T16:17:17.161Z,43.27
2018-12-20T16:19:50.272Z,44.80
2018-12-20T16:22:25.549Z,41.83
2018-12-20T16:24:57.970Z,44.33
2018-12-20T16:27:30.796Z,42.97
2018-12-20T16:30:04.874Z,42.73
2018-12-20T16:32:37.881Z,51.27
2018-12-20T16:35:10.776Z,42.00
2018-12-20T16:37:43.240Z,42.70
2018-12-20T16:40:15.841Z,46.33
2018-12-20T16:42:48.184Z,43.67
2018-12-20T16:45:20.511Z,48.33
2018-12-20T16:47:52.803Z,44.17
2018-12-20T16:50:25.872Z,51.13
2018-12-20T16:52:58.216Z,45.37
2018-12-20T16:55:30.433Z,54.87
2018-12-20T16:58:03.007Z,50.57
2018-12-20T17:00:35.417Z,59.20
2018-12-20T17:03:07.636Z,55.57
2018-12-20T17:05:39.612Z,51.33
2018-12-20T17:08:12.206Z,66.90
2018-12-20T17:10:43.911Z,49.83
2018-12-20T17:13:16.865Z,54.47
2018-12-20T17:15:49.494Z,57.33
2018-12-20T17:18:21.803Z,56.03
2018-12-20T17:20:54.555Z,64.33
2018-12-20T17:23:35.405Z,68.40
2018-12-20T17:26:02.789Z,59.73
2018-12-20T17:28:35.533Z,63.10
2018-12-20T17:31:08.143Z,48.57
2018-12-20T17:33:40.305Z,52.97
2018-12-20T17:36:12.629Z,57.17
2018-12-20T17:38:46.594Z,46.77
2018-12-20T17:41:18.613Z,46.10
2018-12-20T17:43:51.109Z,40.97
2018-12-20T17:46:23.626Z,41.97
2018-12-20T17:48:56.139Z,49.13
2018-12-20T17:51:28.579Z,75.37
2018-12-20T17:54:00.992Z,51.93
2018-12-20T17:56:33.942Z,45.57
2018-12-20T17:59:06.379Z,47.20
2018-12-20T18:01:40.226Z,47.60
2018-12-20T18:04:12.941Z,46.70
2018-12-20T18:06:45.083Z,42.63
2018-12-20T18:09:17.517Z,44.77
2018-12-20T18:11:50.337Z,49.07
2018-12-20T18:14:22.322Z,50.10
2018-12-20T18:16:55.440Z,43.90
2018-12-20T18:19:28.425Z,49.87
2018-12-20T18:22:00.858Z,65.43
2018-12-20T18:24:33.212Z,53.33
2018-12-20T18:27:04.970Z,52.37
2018-12-20T18:29:37.799Z,47.83
2018-12-20T18:32:10.066Z,46.70
2018-12-20T18:34:43.525Z,49.10
2018-12-20T18:37:16.627Z,51.47
2018-12-20T18:39:50.147Z,48.63
2018-12-20T18:42:23.478Z,50.50
2018-12-20T18:44:56.442Z,57.80
2018-12-20T18:47:29.215Z,53.03
2018-12-20T18:50:02.109Z,47.23
2018-12-20T18:52:34.130Z,51.80
2018-12-20T18:55:06.938Z,49.60
2018-12-20T18:57:39.768Z,47.87
2018-12-20T19:00:12.873Z,51.97
2018-12-20T19:02:45.168Z,53.70
2018-12-20T19:05:17.531Z,52.10
2018-12-20T19:07:50.217Z,49.23
2018-12-20T19:10:23.278Z,46.67
2018-12-20T19:12:55.635Z,45.77
2018-12-20T19:15:28.086Z,45.23
2018-12-20T19:18:00.355Z,48.90
2018-12-20T19:20:32.880Z,50.40
2018-12-20T19:23:05.136Z,46.07
2018-12-20T19:25:38.296Z,50.53
2018-12-20T19:28:10.523Z,55.80
2018-12-20T19:30:42.796Z,47.10
2018-12-20T19:33:15.190Z,49.77
2018-12-20T19:35:47.784Z,45.80
2018-12-20T19:38:20.835Z,52.00
2018-12-20T19:40:52.840Z,50.57
2018-12-20T19:43:25.515Z,49.07
2018-12-20T19:45:59.299Z,46.20
2018-12-20T19:48:31.517Z,48.97
2018-12-20T19:51:04.373Z,44.77
2018-12-20T19:53:38.619Z,45.67
2018-12-20T19:56:10.362Z,47.53
2018-12-20T19:58:42.412Z,46.57
2018-12-20T20:01:15.490Z,49.10
2018-12-20T20:03:48.228Z,51.77
2018-12-20T20:06:21.377Z,48.70
2018-12-20T20:08:53.755Z,44.70
2018-12-20T20:11:26.003Z,46.90
2018-12-20T20:13:58.395Z,49.67
2018-12-20T20:16:30.762Z,46.40
2018-12-20T20:19:03.114Z,49.40
2018-12-20T20:21:35.651Z,56.53
2018-12-20T20:24:08.271Z,51.73
2018-12-20T20:26:40.445Z,53.03
2018-12-20T20:29:12.660Z,51.77
2018-12-20T20:31:46.411Z,48.47
2018-12-20T20:34:19.645Z,51.23
2018-12-20T20:36:52.428Z,52.07
2018-12-20T20:39:24.368Z,60.73
2018-12-20T20:41:56.638Z,57.37
2018-12-20T20:44:29.039Z,53.70
2018-12-20T20:47:01.225Z,60.00
2018-12-20T20:49:34.317Z,57.40
2018-12-20T20:52:06.648Z,61.37
2018-12-20T20:54:39.838Z,58.70
2018-12-20T20:57:12.251Z,56.83
2018-12-20T20:59:50.765Z,65.03
2018-12-20T21:02:18.485Z,59.97
2018-12-20T21:04:50.791Z,56.13
2018-12-20T21:07:23.360Z,60.73
2018-12-20T21:09:55.628Z,61.27
2018-12-20T21:12:27.873Z,60.70
2018-12-20T21:15:00.021Z,63.33
2018-12-20T21:17:32.012Z,63.37
2018-12-20T21:20:04.728Z,67.33
2018-12-20T21:22:36.906Z,62.37
2018-12-20T21:25:09.764Z,57.47
2018-12-20T21:27:41.848Z,65.47
2018-12-20T21:30:14.104Z,65.30
2018-12-20T21:32:46.146Z,59.93
2018-12-20T21:35:18.208Z,57.73
2018-12-20T21:37:50.382Z,49.97
2018-12-20T21:40:22.697Z,44.03
2018-12-20T21:42:54.833Z,45.40
2018-12-20T21:45:26.958Z,43.63
2018-12-20T21:47:59.458Z,44.00
2018-12-20T21:50:38.794Z,39.10
2018-12-20T21:53:06.485Z,43.33
2018-12-20T21:55:38.632Z,44.70
2018-12-20T21:58:10.562Z,41.20
2018-12-20T22:00:42.662Z,43.33
2018-12-20T22:03:14.605Z,43.03
2018-12-20T22:05:47.219Z,45.87
2018-12-20T22:08:19.192Z,44.67
2018-12-20T22:10:51.174Z,41.27
2018-12-20T22:13:23.061Z,42.37
2018-12-20T22:15:55.221Z,43.47
2018-12-20T22:18:26.952Z,41.70
2018-12-20T22:21:00.071Z,39.57
2018-12-20T22:23:32.293Z,39.67
2018-12-20T22:26:04.694Z,43.00
2018-12-20T22:28:36.642Z,37.43
2018-12-20T22:31:08.439Z,37.70
2018-12-20T22:33:40.595Z,41.30
2018-12-20T22:36:12.963Z,39.43
2018-12-20T22:38:45.006Z,36.47
2018-12-20T22:41:17.338Z,38.77
2018-12-20T22:43:49.854Z,39.23
2018-12-20T22:46:22.015Z,38.50
2018-12-20T22:48:54.206Z,36.07
2018-12-20T22:51:26.084Z,34.73
2018-12-20T22:53:58.421Z,32.23
2018-12-20T22:56:30.634Z,32.37
2018-12-20T22:59:03.053Z,32.87
2018-12-20T23:01:34.946Z,33.17
2018-12-20T23:04:07.110Z,32.57
2018-12-20T23:06:39.475Z,28.73
2018-12-20T23:09:11.435Z,32.20
2018-12-20T23:11:43.199Z,30.90
2018-12-20T23:14:15.272Z,30.93
2018-12-20T23:16:53.704Z,28.30
2018-12-20T23:19:21.431Z,31.93
2018-12-20T23:21:53.423Z,32.17
2018-12-20T23:24:25.539Z,29.63
2018-12-20T23:26:57.741Z,31.70
2018-12-20T23:29:29.644Z,31.40
2018-12-20T23:32:01.480Z,79.30
2018-12-20T23:34:33.639Z,44.60
2018-12-20T23:37:05.678Z,34.97
2018-12-20T23:39:37.655Z,30.97
2018-12-20T23:42:09.682Z,30.93
2018-12-20T23:44:41.640Z,28.23
2018-12-20T23:47:14.468Z,30.77
2018-12-20T23:49:46.862Z,30.33
2018-12-20T23:52:19.159Z,29.60
2018-12-20T23:54:51.548Z,28.83
2018-12-20T23:57:23.464Z,30.53
2018-12-20T23:59:55.382Z,28.30
